Time;durP1;ratioP1;P1;durP2;ratioP2;P2;SDS_P1;SDS_P2;PMS_P1;PMS_P2;Temp;Humidity;BMP_temperature;BMP_pressure;BME280_temperature;BME280_humidity;BME280_pressure;Samples;Min_cycle;Max_cycle;Signal;HPM_P1;HPM_P2
2023/10/09 00:01:04;;;;;;;10.25;2.40;;;;;;;;;;5060641;28;20021;-68
2023/10/09 00:03:29;;;;;;;9.88;2.22;;;;;;;;;;5049293;28;20060;-70
2023/10/09 00:05:55;;;;;;;15.73;2.78;;;;;;;;;;5059413;28;23090;-69
2023/10/09 00:08:34;;;;;;;15.07;2.40;;;;;;;;;;5062644;28;20024;-70
2023/10/09 00:11:26;;;;;;;13.45;2.42;;;;;;;;;;5046013;28;20157;-70
2023/10/09 00:13:51;;;;;;;13.43;2.97;;;;;;;;;;5061827;28;20031;-66
2023/10/09 00:16:32;;;;;;;13.73;2.20;;;;;;;;;;5061657;28;20050;-70
2023/10/09 00:19:12;;;;;;;11.90;2.22;;;;;;;;;;5065983;28;20630;-70
2023/10/09 00:21:40;;;;;;;16.48;2.78;;;;;;;;;;5063858;28;20367;-70
2023/10/09 00:24:13;;;;;;;15.38;2.42;;;;;;;;;;5063660;28;20023;-71
2023/10/09 00:26:43;;;;;;;15.88;2.47;;;;;;;;;;5061808;28;20016;-67
2023/10/09 00:29:14;;;;;;;12.10;2.38;;;;;;;;;;5061137;28;20028;-70
2023/10/09 00:31:40;;;;;;;15.57;2.30;;;;;;;;;;5047452;28;20161;-68
2023/10/09 00:34:06;;;;;;;14.18;2.47;;;;;;;;;;5052143;28;20858;-70
2023/10/09 00:36:32;;;;;;;12.02;2.10;;;;;;;;;;5078010;27;20023;-67
2023/10/09 00:39:00;;;;;;;12.85;2.17;;;;;;;;;;5061417;28;22061;-66
2023/10/09 00:41:26;;;;;;;12.48;2.80;;;;;;;;;;5063281;28;20024;-68
2023/10/09 00:43:52;;;;;;;14.00;2.63;;;;;;;;;;5046929;28;20027;-69
2023/10/09 00:48:51;;;;;;;14.07;2.53;;;;;;;;;;5063544;28;20138;-66
2023/10/09 00:51:22;;;;;;;10.23;2.17;;;;;;;;;;5060243;28;20016;-68
2023/10/09 00:53:51;;;;;;;15.45;2.60;;;;;;;;;;5043411;28;20083;-69
2023/10/09 00:58:56;;;;;;;10.00;2.22;;;;;;;;;;5062694;28;20121;-69
2023/10/09 01:01:27;;;;;;;10.35;2.85;;;;;;;;;;5061369;28;20498;-70
2023/10/09 01:03:52;;;;;;;10.25;2.60;;;;;;;;;;5064456;28;20701;-71
2023/10/09 01:06:21;;;;;;;12.13;2.10;;;;;;;;;;5059832;28;20016;-67
2023/10/09 01:09:06;;;;;;;13.45;2.78;;;;;;;;;;5048369;28;20021;-70
2023/10/09 01:11:32;;;;;;;11.73;2.35;;;;;;;;;;5064056;28;20024;-70
2023/10/09 01:14:11;;;;;;;13.57;2.25;;;;;;;;;;5062236;28;20016;-67
2023/10/09 01:16:36;;;;;;;10.93;2.33;;;;;;;;;;5063449;28;20024;-70
2023/10/09 01:19:06;;;;;;;13.00;2.85;;;;;;;;;;5064755;28;20023;-70
2023/10/09 01:21:31;;;;;;;14.73;2.83;;;;;;;;;;5064420;28;20032;-63
2023/10/09 01:24:03;;;;;;;13.45;2.72;;;;;;;;;;5052071;28;20502;-71
2023/10/09 01:26:34;;;;;;;12.23;2.75;;;;;;;;;;5074475;27;20035;-71
2023/10/09 01:29:00;;;;;;;12.52;2.38;;;;;;;;;;5066395;28;20808;-71
2023/10/09 01:31:37;;;;;;;13.75;2.35;;;;;;;;;;5058943;28;20016;-69
2023/10/09 01:34:03;;;;;;;15.60;2.75;;;;;;;;;;5060344;28;20016;-69
2023/10/09 01:36:32;;;;;;;14.85;2.13;;;;;;;;;;5060445;28;20673;-66
2023/10/09 01:39:21;;;;;;;18.63;2.70;;;;;;;;;;5046126;28;20028;-71
2023/10/09 01:41:46;;;;;;;13.13;2.60;;;;;;;;;;5044605;28;20028;-69
2023/10/09 01:44:16;;;;;;;11.75;2.28;;;;;;;;;;5043579;28;20282;-68
2023/10/09 01:46:41;;;;;;;13.90;2.38;;;;;;;;;;5047364;28;20442;-69
2023/10/09 01:49:16;;;;;;;17.00;2.30;;;;;;;;;;5064692;28;20052;-68
2023/10/09 01:51:41;;;;;;;12.48;2.33;;;;;;;;;;5061423;28;20081;-67
2023/10/09 01:54:16;;;;;;;14.55;2.22;;;;;;;;;;5050654;28;20024;-71
2023/10/09 01:56:46;;;;;;;13.32;2.88;;;;;;;;;;5060219;28;20069;-67
2023/10/09 01:59:15;;;;;;;16.10;2.65;;;;;;;;;;5061474;28;20022;-70
2023/10/09 02:01:47;;;;;;;9.70;2.10;;;;;;;;;;5061945;28;21072;-70
2023/10/09 02:04:14;;;;;;;12.48;2.47;;;;;;;;;;5040438;28;20044;-70
2023/10/09 02:06:40;;;;;;;11.57;2.53;;;;;;;;;;5062399;28;20012;-70
2023/10/09 02:09:06;;;;;;;14.93;3.05;;;;;;;;;;5061396;28;20024;-69
2023/10/09 02:11:39;;;;;;;11.52;2.75;;;;;;;;;;5047844;28;20106;-65
2023/10/09 02:14:15;;;;;;;13.77;2.70;;;;;;;;;;5048528;28;20179;-68
2023/10/09 02:16:41;;;;;;;11.48;1.90;;;;;;;;;;5049586;28;20039;-68
2023/10/09 02:19:28;;;;;;;15.27;2.85;;;;;;;;;;5048336;28;20085;-68
2023/10/09 02:21:57;;;;;;;14.52;2.47;;;;;;;;;;5066602;28;20066;-65
2023/10/09 02:27:47;;;;;;;12.80;2.40;;;;;;;;;;4986602;28;20046;-69
2023/10/09 02:30:15;;;;;;;12.65;2.15;;;;;;;;;;4969634;28;20021;-66
2023/10/09 02:32:44;;;;;;;14.98;2.35;;;;;;;;;;4985537;28;20044;-68
2023/10/09 02:35:20;;;;;;;9.55;2.20;;;;;;;;;;4982029;28;20536;-69
2023/10/09 02:37:47;;;;;;;11.38;2.42;;;;;;;;;;4988086;28;20583;-68
2023/10/09 02:40:22;;;;;;;12.63;2.50;;;;;;;;;;4966703;28;20108;-67
2023/10/09 02:42:49;;;;;;;13.27;2.58;;;;;;;;;;4965821;28;20034;-64
2023/10/09 02:45:16;;;;;;;15.05;2.40;;;;;;;;;;4985363;28;20026;-65
2023/10/09 02:47:42;;;;;;;13.05;2.30;;;;;;;;;;4969435;28;20048;-65
2023/10/09 02:50:19;;;;;;;9.07;1.77;;;;;;;;;;5000990;28;20053;-65
2023/10/09 02:52:47;;;;;;;11.82;2.22;;;;;;;;;;5003357;28;20037;-63
2023/10/09 02:55:23;;;;;;;11.95;2.50;;;;;;;;;;4988855;28;20021;-65
2023/10/09 02:57:51;;;;;;;12.90;2.17;;;;;;;;;;5021879;28;20036;-65
2023/10/09 03:00:28;;;;;;;19.05;2.30;;;;;;;;;;5056970;28;20024;-66
2023/10/09 03:02:53;;;;;;;12.23;2.30;;;;;;;;;;5066107;28;20021;-62
2023/10/09 03:05:20;;;;;;;14.47;2.53;;;;;;;;;;5060385;28;20035;-63
2023/10/09 03:07:45;;;;;;;11.75;2.90;;;;;;;;;;5054646;28;20300;-62
2023/10/09 03:10:17;;;;;;;12.63;3.00;;;;;;;;;;5043612;28;20016;-58
2023/10/09 03:12:43;;;;;;;13.52;2.80;;;;;;;;;;5061106;28;20131;-61
2023/10/09 03:15:08;;;;;;;16.88;2.55;;;;;;;;;;5047566;28;20019;-62
2023/10/09 03:17:34;;;;;;;14.10;2.28;;;;;;;;;;5064276;28;20052;-63
2023/10/09 03:20:02;;;;;;;13.23;2.00;;;;;;;;;;5065397;28;20019;-62
2023/10/09 03:22:29;;;;;;;10.82;2.00;;;;;;;;;;5050078;28;20083;-60
2023/10/09 03:24:55;;;;;;;14.88;2.78;;;;;;;;;;5042184;28;20033;-60
2023/10/09 03:27:20;;;;;;;9.63;2.50;;;;;;;;;;5060785;28;20041;-64
2023/10/09 03:29:49;;;;;;;12.88;2.22;;;;;;;;;;5063938;28;20157;-64
2023/10/09 03:32:15;;;;;;;10.38;2.05;;;;;;;;;;5063887;28;20031;-64
2023/10/09 03:34:42;;;;;;;12.13;2.33;;;;;;;;;;5064714;28;20088;-64
2023/10/09 03:37:21;;;;;;;9.90;2.20;;;;;;;;;;5063186;28;20032;-63
2023/10/09 03:39:51;;;;;;;12.95;2.40;;;;;;;;;;5060560;28;20048;-62
2023/10/09 03:42:19;;;;;;;13.70;2.35;;;;;;;;;;5063725;28;20030;-63
2023/10/09 03:44:49;;;;;;;15.68;2.42;;;;;;;;;;5057196;28;20028;-63
2023/10/09 03:47:16;;;;;;;11.25;2.15;;;;;;;;;;5063238;28;20033;-62
2023/10/09 03:49:41;;;;;;;12.82;2.35;;;;;;;;;;5049293;28;20051;-62
2023/10/09 03:52:08;;;;;;;12.70;2.05;;;;;;;;;;5048010;28;20056;-61
2023/10/09 03:54:35;;;;;;;14.02;2.88;;;;;;;;;;5062637;28;20440;-62
2023/10/09 03:57:01;;;;;;;11.98;2.40;;;;;;;;;;5061202;28;20061;-63
2023/10/09 03:59:31;;;;;;;10.07;2.20;;;;;;;;;;5046225;28;20048;-63
2023/10/09 04:01:58;;;;;;;12.32;2.65;;;;;;;;;;5069956;28;20107;-63
2023/10/09 04:04:23;;;;;;;12.18;2.65;;;;;;;;;;5065166;28;20024;-63
2023/10/09 04:06:53;;;;;;;12.68;2.60;;;;;;;;;;5043667;28;20021;-61
2023/10/09 04:11:57;;;;;;;12.20;2.47;;;;;;;;;;5064957;28;20060;-62
2023/10/09 04:14:26;;;;;;;12.00;2.30;;;;;;;;;;5062697;28;20136;-63
2023/10/09 04:16:52;;;;;;;11.55;2.28;;;;;;;;;;5045032;28;20012;-62
2023/10/09 04:19:22;;;;;;;13.52;2.35;;;;;;;;;;5046216;28;20024;-60
2023/10/09 04:21:48;;;;;;;13.43;2.67;;;;;;;;;;5065357;28;20024;-64
2023/10/09 04:26:44;;;;;;;12.68;2.67;;;;;;;;;;5061972;28;20036;-64
2023/10/09 04:29:10;;;;;;;13.15;2.50;;;;;;;;;;5062365;28;20545;-64
2023/10/09 04:31:37;;;;;;;13.38;2.85;;;;;;;;;;5064874;28;20028;-62
2023/10/09 04:36:49;;;;;;;12.60;2.97;;;;;;;;;;5064185;28;20032;-63
2023/10/09 04:39:16;;;;;;;11.85;2.13;;;;;;;;;;5058111;28;20020;-64
2023/10/09 04:44:19;;;;;;;9.80;2.63;;;;;;;;;;5062652;28;20036;-62
2023/10/09 04:46:44;;;;;;;13.48;2.65;;;;;;;;;;5052895;28;20063;-63
2023/10/09 04:49:26;;;;;;;10.32;2.20;;;;;;;;;;5068972;28;20123;-63
2023/10/09 04:52:17;;;;;;;13.10;2.67;;;;;;;;;;5067230;28;20070;-62
2023/10/09 04:57:30;;;;;;;13.85;2.70;;;;;;;;;;5067533;28;20092;-63
2023/10/09 04:59:58;;;;;;;13.23;2.55;;;;;;;;;;5066824;28;20036;-61
2023/10/09 05:02:36;;;;;;;18.50;3.55;;;;;;;;;;5057837;28;20055;-60
2023/10/09 05:05:47;;;;;;;13.05;2.10;;;;;;;;;;5047160;28;20629;-63
2023/10/09 05:07:56;;;;;;;16.67;3.42;;;;;;;;;;5045514;28;20036;-62
2023/10/09 05:10:25;;;;;;;12.35;2.97;;;;;;;;;;5066659;28;20031;-61
2023/10/09 05:12:56;;;;;;;15.38;2.70;;;;;;;;;;5062461;28;20463;-62
2023/10/09 05:15:29;;;;;;;13.35;2.45;;;;;;;;;;5069904;28;20070;-61
2023/10/09 05:17:56;;;;;;;14.02;2.50;;;;;;;;;;5066607;28;20057;-62
2023/10/09 05:23:16;;;;;;;12.02;2.55;;;;;;;;;;5073601;28;20026;-63
2023/10/09 05:25:55;;;;;;;12.82;2.65;;;;;;;;;;5060969;28;20059;-60
2023/10/09 05:28:32;;;;;;;11.63;2.75;;;;;;;;;;5067992;28;20106;-63
2023/10/09 05:31:07;;;;;;;15.23;2.70;;;;;;;;;;5051849;28;20078;-61
2023/10/09 05:33:33;;;;;;;14.82;3.20;;;;;;;;;;5071125;28;20015;-64
2023/10/09 05:36:47;;;;;;;13.60;2.60;;;;;;;;;;5068280;28;20573;-61
2023/10/09 05:38:58;;;;;;;11.93;2.60;;;;;;;;;;5051747;28;20043;-64
2023/10/09 05:49:54;;;;;;;12.00;2.70;;;;;;;;;;5078352;28;20781;-63
2023/10/09 05:52:32;;;;;;;8.63;2.08;;;;;;;;;;5090209;27;20115;-63
2023/10/09 05:58:53;;;;;;;15.65;2.92;;;;;;;;;;5087590;27;21059;-61
2023/10/09 06:03:23;;;;;;;11.50;2.63;;;;;;;;;;5089579;27;20083;-64
2023/10/09 06:08:27;;;;;;;11.25;2.33;;;;;;;;;;5093505;27;20043;-62
2023/10/09 06:13:45;;;;;;;13.27;2.03;;;;;;;;;;5093260;27;20103;-64
2023/10/09 06:16:29;;;;;;;12.25;1.92;;;;;;;;;;5072718;28;20023;-62
2023/10/09 06:19:07;;;;;;;11.68;2.03;;;;;;;;;;5095715;27;20022;-64
2023/10/09 06:24:22;;;;;;;13.80;2.55;;;;;;;;;;5055317;28;20084;-63
2023/10/09 06:34:51;;;;;;;12.38;2.45;;;;;;;;;;5093335;28;20042;-62
2023/10/09 06:39:50;;;;;;;12.60;2.50;;;;;;;;;;5094214;28;20114;-62
2023/10/09 06:45:07;;;;;;;12.40;2.47;;;;;;;;;;5091402;27;20032;-63
2023/10/09 06:47:41;;;;;;;13.13;2.67;;;;;;;;;;5096391;27;20020;-64
2023/10/09 06:55:51;;;;;;;13.90;2.63;;;;;;;;;;5068110;28;20079;-62
2023/10/09 06:58:26;;;;;;;16.52;2.75;;;;;;;;;;5073678;28;20044;-62
2023/10/09 07:03:29;;;;;;;12.52;2.38;;;;;;;;;;5073219;28;20020;-61
2023/10/09 07:06:24;;;;;;;12.15;2.17;;;;;;;;;;5090413;27;20043;-62
2023/10/09 07:14:06;;;;;;;9.82;2.15;;;;;;;;;;5074165;28;20213;-64
2023/10/09 07:16:57;;;;;;;13.60;2.65;;;;;;;;;;5060433;28;20031;-62
2023/10/09 07:22:16;;;;;;;13.75;2.47;;;;;;;;;;5072598;28;20029;-64
2023/10/09 07:24:49;;;;;;;12.35;2.35;;;;;;;;;;5074385;28;20012;-61
2023/10/09 07:27:15;;;;;;;9.43;2.25;;;;;;;;;;5070266;28;20349;-64
2023/10/09 07:29:49;;;;;;;10.57;2.30;;;;;;;;;;5075793;28;20040;-63
2023/10/09 07:32:20;;;;;;;13.48;2.90;;;;;;;;;;5069742;28;20028;-62
2023/10/09 07:34:58;;;;;;;11.90;2.03;;;;;;;;;;5053145;28;20031;-63
2023/10/09 07:37:30;;;;;;;12.23;3.10;;;;;;;;;;5070292;28;20123;-65
2023/10/09 07:39:58;;;;;;;10.88;2.15;;;;;;;;;;5073308;28;20512;-65
2023/10/09 07:42:34;;;;;;;14.43;2.05;;;;;;;;;;5084132;27;20032;-64
2023/10/09 07:45:11;;;;;;;13.07;2.30;;;;;;;;;;5073743;28;20020;-66
2023/10/09 07:50:30;;;;;;;16.30;2.55;;;;;;;;;;5068037;28;20058;-64
2023/10/09 07:53:14;;;;;;;13.32;2.42;;;;;;;;;;5070293;28;20020;-65
2023/10/09 07:55:53;;;;;;;15.27;2.95;;;;;;;;;;5068580;28;20515;-64
2023/10/09 07:58:24;;;;;;;15.63;2.83;;;;;;;;;;5067450;28;20008;-62
2023/10/09 08:01:08;;;;;;;13.20;2.10;;;;;;;;;;5067287;28;20016;-61
2023/10/09 08:03:35;;;;;;;16.67;2.83;;;;;;;;;;5072658;28;20020;-64
2023/10/09 08:14:41;;;;;;;12.40;2.58;;;;;;;;;;5074191;28;20020;-64
2023/10/09 08:19:53;;;;;;;13.10;3.55;;;;;;;;;;5074634;28;20031;-64
2023/10/09 08:24:57;;;;;;;10.30;2.50;;;;;;;;;;5072925;28;20104;-65
2023/10/09 08:32:43;;;;;;;17.42;2.67;;;;;;;;;;5068932;28;20039;-66
2023/10/09 08:35:30;;;;;;;14.25;2.55;;;;;;;;;;5053575;28;20123;-66
2023/10/09 08:37:58;;;;;;;11.70;2.88;;;;;;;;;;5075748;28;21359;-63
2023/10/09 08:40:33;;;;;;;16.17;3.60;;;;;;;;;;5068741;28;20024;-61
2023/10/09 08:43:08;;;;;;;16.65;4.80;;;;;;;;;;5067834;28;20028;-65
2023/10/09 08:45:35;;;;;;;14.95;3.05;;;;;;;;;;5078306;28;20020;-64
2023/10/09 08:48:04;;;;;;;17.23;3.80;;;;;;;;;;5076864;28;20149;-64
2023/10/09 08:50:30;;;;;;;15.88;4.57;;;;;;;;;;5053273;28;20068;-65
2023/10/09 08:52:58;;;;;;;14.57;5.30;;;;;;;;;;5073169;28;20044;-65
2023/10/09 08:55:23;;;;;;;14.18;3.13;;;;;;;;;;5055347;28;20031;-63
2023/10/09 08:57:53;;;;;;;11.33;2.80;;;;;;;;;;5053532;28;20020;-64
2023/10/09 09:00:23;;;;;;;14.95;2.90;;;;;;;;;;5048732;28;20399;-65
2023/10/09 09:02:55;;;;;;;9.23;2.72;;;;;;;;;;5072365;28;20097;-63
2023/10/09 09:05:23;;;;;;;14.55;4.03;;;;;;;;;;5069592;28;20031;-66
2023/10/09 09:07:49;;;;;;;18.92;4.10;;;;;;;;;;5072601;28;20035;-63
2023/10/09 09:10:17;;;;;;;16.55;5.20;;;;;;;;;;5056261;28;20423;-66
2023/10/09 09:12:46;;;;;;;13.32;4.43;;;;;;;;;;5054696;28;20102;-62
2023/10/09 09:15:19;;;;;;;19.30;4.45;;;;;;;;;;5067747;28;20132;-65
2023/10/09 09:17:45;;;;;;;10.18;2.35;;;;;;;;;;5068339;28;20115;-65
2023/10/09 09:20:40;;;;;;;13.68;2.55;;;;;;;;;;5070465;28;20040;-64
2023/10/09 09:23:12;;;;;;;15.27;2.50;;;;;;;;;;5068534;28;20036;-65
2023/10/09 09:26:08;;;;;;;15.00;2.85;;;;;;;;;;5084166;27;20027;-64
2023/10/09 09:28:38;;;;;;;10.65;2.03;;;;;;;;;;5056478;28;20036;-63
2023/10/09 09:31:13;;;;;;;13.63;2.30;;;;;;;;;;5055024;28;20474;-67
2023/10/09 09:33:52;;;;;;;17.80;2.40;;;;;;;;;;5048930;28;21247;-65
2023/10/09 09:36:17;;;;;;;17.45;2.40;;;;;;;;;;5052043;28;20803;-67
2023/10/09 09:38:47;;;;;;;19.67;2.90;;;;;;;;;;5065732;28;20024;-65
2023/10/09 09:41:13;;;;;;;11.65;2.70;;;;;;;;;;5070703;28;20173;-62
2023/10/09 09:43:44;;;;;;;9.85;2.35;;;;;;;;;;5086655;27;20439;-64
2023/10/09 09:46:11;;;;;;;15.30;2.72;;;;;;;;;;5065973;28;20027;-66
2023/10/09 09:48:44;;;;;;;12.02;2.47;;;;;;;;;;5045115;28;20028;-63
2023/10/09 09:51:09;;;;;;;15.27;2.67;;;;;;;;;;5063743;28;20036;-65
2023/10/09 09:53:37;;;;;;;11.25;3.22;;;;;;;;;;5068879;28;20534;-66
2023/10/09 09:56:03;;;;;;;11.45;2.33;;;;;;;;;;5050210;28;20031;-64
2023/10/09 09:58:35;;;;;;;13.63;2.33;;;;;;;;;;5067218;28;20144;-64
2023/10/09 10:01:25;;;;;;;12.52;2.35;;;;;;;;;;5062631;28;20694;-66
2023/10/09 10:04:13;;;;;;;14.45;2.58;;;;;;;;;;5069996;28;20032;-62
2023/10/09 10:06:41;;;;;;;14.35;2.65;;;;;;;;;;5053957;28;20130;-64
2023/10/09 10:09:07;;;;;;;13.07;2.85;;;;;;;;;;5067873;28;20058;-65
2023/10/09 10:11:44;;;;;;;15.60;3.08;;;;;;;;;;5052262;28;20028;-69
2023/10/09 10:14:12;;;;;;;17.70;3.22;;;;;;;;;;5070656;28;20536;-69
2023/10/09 10:16:57;;;;;;;15.38;3.17;;;;;;;;;;5062078;28;20008;-65
2023/10/09 10:19:23;;;;;;;12.95;2.63;;;;;;;;;;5063994;28;20116;-60
2023/10/09 10:21:58;;;;;;;16.17;2.50;;;;;;;;;;5050789;28;20027;-64
2023/10/09 10:24:35;;;;;;;15.95;2.85;;;;;;;;;;5066224;28;20265;-63
2023/10/09 10:27:11;;;;;;;14.10;3.08;;;;;;;;;;5050309;28;20019;-66
2023/10/09 10:29:38;;;;;;;13.60;2.80;;;;;;;;;;5053899;28;20058;-65
2023/10/09 10:32:08;;;;;;;18.38;3.08;;;;;;;;;;5068759;28;20107;-63
2023/10/09 10:34:55;;;;;;;15.93;3.00;;;;;;;;;;5052686;28;20024;-64
2023/10/09 10:37:24;;;;;;;14.02;2.78;;;;;;;;;;5053038;28;20082;-65
2023/10/09 10:39:59;;;;;;;13.88;2.80;;;;;;;;;;5069619;28;20034;-64
2023/10/09 10:42:57;;;;;;;14.32;3.13;;;;;;;;;;5066118;28;20016;-65
2023/10/09 10:45:34;;;;;;;12.02;2.42;;;;;;;;;;5064496;28;20040;-65
2023/10/09 10:48:06;;;;;;;12.55;2.25;;;;;;;;;;5062444;28;20048;-67
2023/10/09 10:50:37;;;;;;;15.00;2.80;;;;;;;;;;5069592;28;20473;-65
2023/10/09 10:53:16;;;;;;;11.70;2.58;;;;;;;;;;5056632;28;20024;-66
2023/10/09 10:58:38;;;;;;;12.50;2.60;;;;;;;;;;5063754;28;20489;-65
2023/10/09 11:01:11;;;;;;;11.20;2.63;;;;;;;;;;5085827;28;20127;-63
2023/10/09 11:03:54;;;;;;;12.93;2.50;;;;;;;;;;5063482;28;20055;-66
2023/10/09 11:06:37;;;;;;;15.75;2.92;;;;;;;;;;5063035;28;20016;-66
2023/10/09 11:09:09;;;;;;;13.27;2.80;;;;;;;;;;5063238;28;20023;-65
2023/10/09 11:11:42;;;;;;;11.80;2.65;;;;;;;;;;5066438;28;20679;-65
2023/10/09 11:14:26;;;;;;;14.68;2.60;;;;;;;;;;5044183;28;20138;-63
2023/10/09 11:16:57;;;;;;;12.27;2.80;;;;;;;;;;5065771;28;20020;-65
2023/10/09 11:19:31;;;;;;;14.05;3.35;;;;;;;;;;5070259;28;20750;-63
2023/10/09 11:24:34;;;;;;;12.50;2.53;;;;;;;;;;5069669;28;20132;-64
2023/10/09 11:27:05;;;;;;;10.00;2.57;;;;;;;;;;5062423;28;20028;-63
2023/10/09 11:29:52;;;;;;;11.00;2.20;;;;;;;;;;5071126;28;20105;-62
2023/10/09 11:32:19;;;;;;;14.13;3.42;;;;;;;;;;5071407;28;20031;-65
2023/10/09 11:34:54;;;;;;;14.37;2.70;;;;;;;;;;5060705;28;20024;-63
2023/10/09 11:39:55;;;;;;;12.95;3.15;;;;;;;;;;5077908;28;20036;-65
2023/10/09 11:45:19;;;;;;;18.17;2.90;;;;;;;;;;5078409;28;20360;-64
2023/10/09 11:48:03;;;;;;;14.23;2.88;;;;;;;;;;5074769;28;20071;-63
2023/10/09 11:50:56;;;;;;;16.50;2.28;;;;;;;;;;5073032;28;20036;-64
2023/10/09 11:55:50;;;;;;;12.20;2.53;;;;;;;;;;5072235;28;20028;-63
2023/10/09 11:58:24;;;;;;;14.82;2.60;;;;;;;;;;5048502;28;20029;-64
2023/10/09 12:00:56;;;;;;;15.32;3.08;;;;;;;;;;5074365;28;20016;-64
2023/10/09 12:03:28;;;;;;;14.05;2.63;;;;;;;;;;5073366;28;20020;-64
2023/10/09 12:05:53;;;;;;;13.07;2.50;;;;;;;;;;5068208;28;20043;-62
2023/10/09 12:08:22;;;;;;;12.45;3.10;;;;;;;;;;5052613;28;20204;-63
2023/10/09 12:10:48;;;;;;;16.60;2.63;;;;;;;;;;5070499;28;20016;-65
2023/10/09 12:13:15;;;;;;;16.08;3.25;;;;;;;;;;5077075;28;20046;-63
2023/10/09 12:15:40;;;;;;;18.83;2.75;;;;;;;;;;5067052;28;20017;-63
2023/10/09 12:18:14;;;;;;;12.77;2.50;;;;;;;;;;5085599;27;20619;-63
2023/10/09 12:20:40;;;;;;;14.57;2.80;;;;;;;;;;5077876;28;20022;-65
2023/10/09 12:23:05;;;;;;;16.35;2.95;;;;;;;;;;5073412;28;20028;-65
2023/10/09 12:25:32;;;;;;;17.95;2.67;;;;;;;;;;5072535;28;20152;-63
2023/10/09 12:27:57;;;;;;;17.17;3.28;;;;;;;;;;5067361;28;20830;-64
2023/10/09 12:30:26;;;;;;;16.48;2.70;;;;;;;;;;5071648;28;20021;-64
2023/10/09 12:32:57;;;;;;;16.98;2.78;;;;;;;;;;5054092;28;20024;-63
2023/10/09 12:35:23;;;;;;;13.27;2.70;;;;;;;;;;5065733;28;20020;-63
2023/10/09 12:37:49;;;;;;;10.82;2.58;;;;;;;;;;5064679;28;20016;-63
2023/10/09 12:40:23;;;;;;;14.18;3.08;;;;;;;;;;5072843;28;20020;-62
2023/10/09 12:42:48;;;;;;;15.55;2.97;;;;;;;;;;5073468;28;20047;-65
2023/10/09 12:45:17;;;;;;;14.53;2.50;;;;;;;;;;5072501;28;20032;-63
2023/10/09 12:47:43;;;;;;;14.73;2.58;;;;;;;;;;5071544;28;20891;-64
2023/10/09 12:50:13;;;;;;;11.70;2.40;;;;;;;;;;5083843;27;20174;-63
2023/10/09 12:52:39;;;;;;;13.98;2.85;;;;;;;;;;5057980;28;20020;-63
2023/10/09 12:55:09;;;;;;;14.35;2.60;;;;;;;;;;5055871;28;20026;-63
2023/10/09 12:57:36;;;;;;;14.38;3.00;;;;;;;;;;5070559;28;20029;-64
2023/10/09 13:00:10;;;;;;;14.85;2.70;;;;;;;;;;5068555;28;20035;-62
2023/10/09 13:02:35;;;;;;;15.48;2.60;;;;;;;;;;5067162;28;20088;-62
2023/10/09 13:05:03;;;;;;;16.30;3.20;;;;;;;;;;5051716;28;20436;-61
2023/10/09 13:07:33;;;;;;;14.13;2.88;;;;;;;;;;5049664;28;20108;-63
2023/10/09 13:10:12;;;;;;;15.18;2.88;;;;;;;;;;5063496;28;20025;-64
2023/10/09 13:12:41;;;;;;;15.90;3.40;;;;;;;;;;5065166;28;20619;-62
2023/10/09 13:15:09;;;;;;;17.90;2.83;;;;;;;;;;5069843;28;20027;-63
2023/10/09 13:17:36;;;;;;;13.25;2.90;;;;;;;;;;5049088;28;20543;-64
2023/10/09 13:20:01;;;;;;;12.98;2.78;;;;;;;;;;5066616;28;20023;-62
2023/10/09 13:22:27;;;;;;;13.57;2.90;;;;;;;;;;5060676;28;20009;-63
2023/10/09 13:25:03;;;;;;;13.45;2.58;;;;;;;;;;5059102;28;20023;-63
2023/10/09 13:27:34;;;;;;;19.33;3.00;;;;;;;;;;5050114;28;20484;-64
2023/10/09 13:30:05;;;;;;;19.50;3.45;;;;;;;;;;5047868;28;21181;-61
2023/10/09 13:32:33;;;;;;;13.73;2.40;;;;;;;;;;5050920;28;20324;-63
2023/10/09 13:35:02;;;;;;;12.73;2.83;;;;;;;;;;5062009;28;20016;-61
2023/10/09 13:37:27;;;;;;;16.90;3.20;;;;;;;;;;5049449;28;20017;-63
2023/10/09 13:39:53;;;;;;;14.77;2.92;;;;;;;;;;5065646;28;20382;-64
2023/10/09 13:42:18;;;;;;;12.60;2.63;;;;;;;;;;5051855;28;20541;-63
2023/10/09 13:44:43;;;;;;;17.97;2.90;;;;;;;;;;5065294;28;20167;-64
2023/10/09 13:47:18;;;;;;;12.97;2.40;;;;;;;;;;5062414;28;20046;-63
2023/10/09 13:49:44;;;;;;;13.25;2.95;;;;;;;;;;5073759;27;20130;-63
2023/10/09 13:52:09;;;;;;;15.73;3.35;;;;;;;;;;5091696;28;20653;-63
2023/10/09 13:57:03;;;;;;;14.00;2.83;;;;;;;;;;5090085;27;21087;-64
2023/10/09 13:59:31;;;;;;;12.65;2.85;;;;;;;;;;5072301;28;20348;-67
2023/10/09 14:01:56;;;;;;;17.02;3.20;;;;;;;;;;5086484;27;20015;-62
2023/10/09 14:04:26;;;;;;;15.50;3.15;;;;;;;;;;5068548;28;20024;-63
2023/10/09 14:06:58;;;;;;;;;;;;;;;;;;5085352;27;20062;-63
2023/10/09 14:10:06;;;;;;;12.65;2.92;;;;;;;;;;5070095;28;19954;-65
2023/10/09 14:12:19;;;;;;;14.32;2.80;;;;;;;;;;5089751;27;20044;-63
2023/10/09 14:14:48;;;;;;;12.68;2.92;;;;;;;;;;5101976;27;20385;-63
2023/10/09 14:17:13;;;;;;;15.10;3.03;;;;;;;;;;5087864;27;20020;-62
2023/10/09 14:19:48;;;;;;;14.25;2.75;;;;;;;;;;5089640;28;20027;-65
2023/10/09 14:22:17;;;;;;;13.98;3.22;;;;;;;;;;5090031;27;20047;-64
2023/10/09 14:24:45;;;;;;;13.57;2.97;;;;;;;;;;5093952;28;20024;-63
2023/10/09 14:27:17;;;;;;;11.80;2.97;;;;;;;;;;5069675;28;20012;-64
2023/10/09 14:29:55;;;;;;;12.23;2.50;;;;;;;;;;5069079;28;20030;-63
2023/10/09 14:32:25;;;;;;;15.35;2.53;;;;;;;;;;5087766;28;21207;-63
2023/10/09 14:34:51;;;;;;;13.45;2.72;;;;;;;;;;5074486;28;20031;-64
2023/10/09 14:37:18;;;;;;;13.10;2.88;;;;;;;;;;5084908;28;20008;-63
2023/10/09 14:39:48;;;;;;;16.55;3.03;;;;;;;;;;5090477;28;20019;-64
2023/10/09 14:42:15;;;;;;;;;;;;;;;;;;5085916;28;20081;-64
2023/10/09 14:44:40;;;;;;;11.02;2.25;;;;;;;;;;5091520;28;20437;-64
2023/10/09 14:47:08;;;;;;;15.98;2.80;;;;;;;;;;5090244;28;20016;-63
2023/10/09 14:49:37;;;;;;;13.38;2.80;;;;;;;;;;5084020;28;20144;-64
2023/10/09 14:52:02;;;;;;;21.33;3.00;;;;;;;;;;5062348;28;20074;-64
2023/10/09 14:54:27;;;;;;;13.77;2.80;;;;;;;;;;5069837;28;20438;-63
2023/10/09 14:56:54;;;;;;;14.77;2.87;;;;;;;;;;5075140;28;20474;-64
2023/10/09 14:59:22;;;;;;;15.05;2.67;;;;;;;;;;5063075;28;20118;-64
2023/10/09 15:01:50;;;;;;;14.50;3.22;;;;;;;;;;5049307;28;20107;-63
2023/10/09 15:04:15;;;;;;;12.15;2.58;;;;;;;;;;5049123;28;20020;-62
2023/10/09 15:06:41;;;;;;;15.43;2.40;;;;;;;;;;5072763;28;20352;-64
2023/10/09 15:09:09;;;;;;;15.73;2.60;;;;;;;;;;5075220;28;20100;-64
2023/10/09 15:11:34;;;;;;;13.75;2.95;;;;;;;;;;5075484;28;20054;-63
2023/10/09 15:13:59;;;;;;;14.60;2.88;;;;;;;;;;5070873;28;20016;-65
2023/10/09 15:16:30;;;;;;;14.43;3.08;;;;;;;;;;5072185;28;20024;-64
2023/10/09 15:18:57;;;;;;;13.88;3.03;;;;;;;;;;5052838;28;20622;-62
2023/10/09 15:21:26;;;;;;;15.80;3.17;;;;;;;;;;5054146;28;20016;-61
2023/10/09 15:23:54;;;;;;;;;;;;;;;;;;5057369;28;20028;-62
2023/10/09 15:26:19;;;;;;;15.52;2.50;;;;;;;;;;5070529;28;19938;-62
2023/10/09 15:28:49;;;;;;;18.58;2.67;;;;;;;;;;5088423;28;20032;-61
2023/10/09 15:31:17;;;;;;;14.70;3.03;;;;;;;;;;5069131;28;20402;-62
2023/10/09 15:33:42;;;;;;;15.75;3.00;;;;;;;;;;5068192;28;20059;-61
2023/10/09 15:36:17;;;;;;;17.15;3.38;;;;;;;;;;5058114;28;20458;-62
2023/10/09 15:38:42;;;;;;;19.08;3.20;;;;;;;;;;5075720;28;20592;-62
2023/10/09 15:41:07;;;;;;;12.45;2.95;;;;;;;;;;5070751;28;20021;-62
2023/10/09 15:43:34;;;;;;;21.15;3.65;;;;;;;;;;5072188;28;20020;-62
2023/10/09 15:46:02;;;;;;;14.40;3.45;;;;;;;;;;5055955;28;20071;-62
2023/10/09 15:48:27;;;;;;;14.07;3.28;;;;;;;;;;5067569;28;20032;-62
2023/10/09 15:50:53;;;;;;;13.13;2.97;;;;;;;;;;5074267;28;20456;-62
2023/10/09 15:53:19;;;;;;;14.00;2.88;;;;;;;;;;5049683;28;20046;-62
2023/10/09 15:55:45;;;;;;;17.67;3.03;;;;;;;;;;5061798;28;20126;-62
2023/10/09 15:58:12;;;;;;;9.30;2.75;;;;;;;;;;5071063;28;20098;-63
2023/10/09 16:00:39;;;;;;;19.10;3.60;;;;;;;;;;5076578;28;20027;-62
2023/10/09 16:03:08;;;;;;;14.73;3.20;;;;;;;;;;5069376;28;20091;-63
2023/10/09 16:05:35;;;;;;;15.82;2.97;;;;;;;;;;5063853;28;20020;-62
2023/10/09 16:08:04;;;;;;;18.23;3.30;;;;;;;;;;5055488;28;20371;-62
2023/10/09 16:10:34;;;;;;;14.70;4.65;;;;;;;;;;5070088;28;20027;-62
2023/10/09 16:13:00;;;;;;;16.80;4.50;;;;;;;;;;5055517;28;20043;-62
2023/10/09 16:15:27;;;;;;;15.40;3.22;;;;;;;;;;5064320;28;20492;-62
2023/10/09 16:17:58;;;;;;;13.00;3.75;;;;;;;;;;5039476;28;20074;-63
2023/10/09 16:20:25;;;;;;;15.65;4.35;;;;;;;;;;5057842;28;20096;-62
2023/10/09 16:22:51;;;;;;;16.05;3.70;;;;;;;;;;5067654;28;20015;-61
2023/10/09 16:25:20;;;;;;;11.00;3.30;;;;;;;;;;5072907;28;20016;-62
2023/10/09 16:27:47;;;;;;;12.63;2.72;;;;;;;;;;5050641;28;20066;-62
2023/10/09 16:30:18;;;;;;;15.52;2.88;;;;;;;;;;5070794;28;20012;-64
2023/10/09 16:32:43;;;;;;;15.90;3.92;;;;;;;;;;5067522;28;20024;-64
2023/10/09 16:35:09;;;;;;;15.93;3.10;;;;;;;;;;5075865;28;20435;-64
2023/10/09 16:37:35;;;;;;;14.60;2.72;;;;;;;;;;5073177;28;20446;-64
2023/10/09 16:40:11;;;;;;;14.25;3.03;;;;;;;;;;5052326;28;20016;-64
2023/10/09 16:42:40;;;;;;;16.48;4.18;;;;;;;;;;5069225;28;20028;-61
2023/10/09 16:45:08;;;;;;;13.55;4.35;;;;;;;;;;5051183;28;20123;-62